createdAt,value
2023-11-17T00:01:43.194Z,100249.72
2023-11-17T00:04:09.989Z,100254.34
2023-11-17T00:06:37.043Z,100258.84
2023-11-17T00:09:06.505Z,100267.44
2023-11-17T00:11:36.052Z,100252.09
2023-11-17T00:14:02.873Z,100263.47
2023-11-17T00:16:29.987Z,100276.28
2023-11-17T00:18:56.690Z,100270.13
2023-11-17T00:21:23.620Z,100267.22
2023-11-17T00:23:50.279Z,100279.38
2023-11-17T00:26:18.654Z,100281.50
2023-11-17T00:28:45.855Z,100272.66
2023-11-17T00:31:14.297Z,100279.13
2023-11-17T00:33:41.985Z,100280.13
2023-11-17T00:36:10.190Z,100277.25
2023-11-17T00:38:37.552Z,100261.00
2023-11-17T00:41:14.300Z,100259.78
2023-11-17T00:43:46.042Z,100277.06
2023-11-17T00:46:15.077Z,100284.28
2023-11-17T00:48:42.331Z,100273.03
2023-11-17T00:51:09.305Z,100274.91
2023-11-17T00:53:35.986Z,100281.44
2023-11-17T00:56:05.878Z,100282.28
2023-11-17T00:58:32.681Z,100281.94
2023-11-17T01:00:59.721Z,100285.94
2023-11-17T01:03:27.305Z,100257.63
2023-11-17T01:05:54.395Z,100295.84
2023-11-17T01:08:21.068Z,100301.06
2023-11-17T01:10:48.775Z,100295.25
2023-11-17T01:13:15.674Z,100291.34
2023-11-17T01:15:42.809Z,100283.56
2023-11-17T01:18:10.095Z,100289.94
2023-11-17T01:20:37.901Z,100292.06
2023-11-17T01:23:05.050Z,100292.06
2023-11-17T01:25:33.532Z,100291.88
2023-11-17T01:28:01.533Z,100294.41
2023-11-17T01:30:31.306Z,100296.38
2023-11-17T01:32:58.696Z,100309.94
2023-11-17T01:35:26.264Z,100287.69
2023-11-17T01:37:53.033Z,100312.25
2023-11-17T01:40:23.696Z,100298.25
2023-11-17T01:42:50.436Z,100307.13
2023-11-17T01:45:17.436Z,100309.53
2023-11-17T01:47:44.331Z,100303.22
2023-11-17T01:50:13.467Z,100313.09
2023-11-17T01:52:44.895Z,100320.84
2023-11-17T01:55:13.379Z,100322.06
2023-11-17T01:57:40.590Z,100311.88
2023-11-17T02:00:15.470Z,100311.63
2023-11-17T02:02:47.505Z,100316.09
2023-11-17T02:05:17.545Z,100310.59
2023-11-17T02:08:02.862Z,100320.38
2023-11-17T02:10:36.963Z,100324.41
2023-11-17T02:13:26.182Z,100320.19
2023-11-17T02:15:57.486Z,100329.00
2023-11-17T02:18:24.979Z,100309.25
2023-11-17T02:20:53.818Z,100319.56
2023-11-17T02:23:22.025Z,100296.47
2023-11-17T02:26:17.222Z,100321.22
2023-11-17T02:28:59.772Z,100322.47
2023-11-17T02:31:37.479Z,100322.91
2023-11-17T02:34:09.991Z,100325.81
2023-11-17T02:36:40.049Z,100321.72
2023-11-17T02:39:26.044Z,100328.91
2023-11-17T02:41:59.599Z,100320.03
2023-11-17T02:44:31.093Z,100331.53
2023-11-17T02:47:04.286Z,100327.41
2023-11-17T02:49:52.151Z,100336.59
2023-11-17T02:52:33.095Z,100320.09
2023-11-17T02:55:03.360Z,100331.97
2023-11-17T02:57:30.858Z,100337.31
2023-11-17T02:59:57.553Z,100324.50
2023-11-17T03:02:24.825Z,100330.78
2023-11-17T03:04:55.529Z,100328.91
2023-11-17T03:07:23.063Z,100344.78
2023-11-17T03:09:53.112Z,100337.50
2023-11-17T03:12:21.259Z,100338.47
2023-11-17T03:14:47.932Z,100342.81
2023-11-17T03:17:14.874Z,100334.81
2023-11-17T03:19:41.951Z,100356.69
2023-11-17T03:22:09.225Z,100346.19
2023-11-17T03:24:36.133Z,100339.84
2023-11-17T03:27:04.153Z,100339.22
2023-11-17T03:29:32.884Z,100354.25
2023-11-17T03:32:00.385Z,100353.50
2023-11-17T03:34:32.070Z,100358.53
2023-11-17T03:37:03.962Z,100360.81
2023-11-17T03:39:44.164Z,100372.28
2023-11-17T03:42:12.566Z,100347.97
2023-11-17T03:44:39.481Z,100372.09
2023-11-17T03:47:08.065Z,100367.50
2023-11-17T03:49:35.385Z,100367.13
2023-11-17T03:52:06.786Z,100374.34
2023-11-17T03:54:33.829Z,100365.75
2023-11-17T03:57:02.915Z,100376.69
2023-11-17T03:59:31.261Z,100374.63
2023-11-17T04:01:59.193Z,100373.78
2023-11-17T04:04:27.138Z,100367.16
2023-11-17T04:06:56.228Z,100383.41
2023-11-17T04:09:25.206Z,100371.63
2023-11-17T04:11:53.225Z,100378.16
2023-11-17T04:14:23.903Z,100389.84
2023-11-17T04:16:52.268Z,100380.69
2023-11-17T04:19:20.830Z,100387.72
2023-11-17T04:21:48.087Z,100381.25
2023-11-17T04:24:14.910Z,100397.72
2023-11-17T04:26:41.999Z,100380.88
2023-11-17T04:29:09.670Z,100400.41
2023-11-17T04:31:37.294Z,100387.59
2023-11-17T04:34:04.057Z,100393.88
2023-11-17T04:36:34.131Z,100372.66
2023-11-17T04:39:02.190Z,100388.00
2023-11-17T04:41:32.761Z,100394.72
2023-11-17T04:43:59.650Z,100395.72
2023-11-17T04:46:26.699Z,100397.72
2023-11-17T04:48:53.627Z,100397.91
2023-11-17T04:51:20.719Z,100404.44
2023-11-17T04:53:47.557Z,100403.59
2023-11-17T04:56:14.744Z,100383.75
2023-11-17T04:58:41.639Z,100405.88
2023-11-17T05:01:08.873Z,100407.72
2023-11-17T05:03:36.766Z,100412.47
2023-11-17T05:06:07.516Z,100421.06
2023-11-17T05:08:36.878Z,100418.75
2023-11-17T05:11:05.556Z,100420.63
2023-11-17T05:13:33.389Z,100409.56
2023-11-17T05:16:05.285Z,100441.28
2023-11-17T05:18:32.118Z,100438.19
2023-11-17T05:20:59.429Z,100443.25
2023-11-17T05:23:26.140Z,100434.84
2023-11-17T05:25:53.082Z,100431.81
2023-11-17T05:28:19.808Z,100425.81
2023-11-17T05:30:47.211Z,100448.28
2023-11-17T05:33:19.519Z,100439.03
2023-11-17T05:35:47.179Z,100454.56
2023-11-17T05:38:13.888Z,100445.84
2023-11-17T05:40:41.297Z,100454.34
2023-11-17T05:43:08.106Z,100451.63
2023-11-17T05:45:35.621Z,100447.06
2023-11-17T05:48:03.443Z,100449.22
2023-11-17T05:50:30.741Z,100442.19
2023-11-17T05:52:57.637Z,100460.59
2023-11-17T05:55:24.705Z,100458.56
2023-11-17T05:57:51.735Z,100462.97
2023-11-17T06:00:22.025Z,100432.84
2023-11-17T06:02:49.465Z,100461.09
2023-11-17T06:05:16.867Z,100474.16
2023-11-17T06:07:43.570Z,100475.19
2023-11-17T06:10:11.971Z,100481.53
2023-11-17T06:12:38.747Z,100474.72
2023-11-17T06:15:07.241Z,100487.38
2023-11-17T06:17:36.214Z,100479.59
2023-11-17T06:20:04.835Z,100485.66
2023-11-17T06:22:31.801Z,100492.13
2023-11-17T06:24:58.802Z,100481.28
2023-11-17T06:27:26.950Z,100483.13
2023-11-17T06:29:54.523Z,100491.75
2023-11-17T06:32:24.233Z,100486.97
2023-11-17T06:34:51.464Z,100477.38
2023-11-17T06:37:18.635Z,100481.03
2023-11-17T06:39:46.362Z,100482.91
2023-11-17T06:42:15.561Z,100493.00
2023-11-17T06:44:42.746Z,100491.88
2023-11-17T06:47:10.123Z,100489.78
2023-11-17T06:49:38.546Z,100498.94
2023-11-17T06:52:08.543Z,100471.34
2023-11-17T06:54:35.704Z,100508.59
2023-11-17T06:57:02.432Z,100502.50
2023-11-17T06:59:29.765Z,100503.09
2023-11-17T07:01:56.599Z,100507.88
2023-11-17T07:04:23.864Z,100513.69
2023-11-17T07:06:50.720Z,100510.78
2023-11-17T07:09:17.910Z,100519.19
2023-11-17T07:11:45.844Z,100522.31
2023-11-17T07:14:13.496Z,100525.47
2023-11-17T07:16:45.802Z,100514.34
2023-11-17T07:19:20.764Z,100522.38
2023-11-17T07:21:51.614Z,100533.91
2023-11-17T07:24:19.810Z,100529.50
2023-11-17T07:26:47.495Z,100536.88
2023-11-17T07:29:15.229Z,100527.00
2023-11-17T07:31:50.386Z,100530.63
2023-11-17T07:34:18.377Z,100536.72
2023-11-17T07:36:49.344Z,100533.72
2023-11-17T07:39:20.778Z,100541.78
2023-11-17T07:41:48.540Z,100540.38
2023-11-17T07:44:16.277Z,100555.34
2023-11-17T07:46:43.647Z,100541.97
2023-11-17T07:49:11.729Z,100552.41
2023-11-17T07:51:38.957Z,100563.47
2023-11-17T07:54:06.119Z,100558.22
2023-11-17T07:56:32.825Z,100561.78
2023-11-17T07:59:00.726Z,100561.06
2023-11-17T08:01:27.799Z,100563.75
2023-11-17T08:03:55.144Z,100574.22
2023-11-17T08:06:22.125Z,100571.50
2023-11-17T08:08:49.351Z,100579.31
2023-11-17T08:11:16.860Z,100563.09
2023-11-17T08:13:43.950Z,100565.06
2023-11-17T08:16:11.508Z,100579.59
2023-11-17T08:18:39.527Z,100593.34
2023-11-17T08:21:07.844Z,100587.81
2023-11-17T08:23:37.121Z,100596.41
2023-11-17T08:26:05.266Z,100595.41
2023-11-17T08:28:33.681Z,100583.41
2023-11-17T08:31:00.504Z,100588.28
2023-11-17T08:33:29.173Z,100591.94
2023-11-17T08:35:58.330Z,100610.19
2023-11-17T08:38:26.471Z,100605.16
2023-11-17T08:40:56.376Z,100609.44
2023-11-17T08:43:26.254Z,100616.75
2023-11-17T08:45:54.123Z,100616.38
2023-11-17T08:48:21.379Z,100625.38
2023-11-17T08:50:48.213Z,100625.28
2023-11-17T08:53:15.182Z,100633.81
2023-11-17T08:55:45.182Z,100637.19
2023-11-17T08:58:12.809Z,100607.75
2023-11-17T09:00:41.860Z,100646.34
2023-11-17T09:03:09.354Z,100652.16
2023-11-17T09:05:36.312Z,100634.25
2023-11-17T09:08:03.467Z,100637.34
2023-11-17T09:10:32.232Z,100659.66
2023-11-17T09:12:59.457Z,100641.56
2023-11-17T09:15:26.962Z,100652.44
2023-11-17T09:17:55.297Z,100664.25
2023-11-17T09:20:24.528Z,100664.16
2023-11-17T09:22:52.628Z,100664.22
2023-11-17T09:25:20.363Z,100672.75
2023-11-17T09:27:49.691Z,100664.97
2023-11-17T09:30:16.635Z,100655.69
2023-11-17T09:32:50.153Z,100678.38
2023-11-17T09:35:17.617Z,100684.19
2023-11-17T09:38:00.999Z,100677.44
2023-11-17T09:40:35.395Z,100678.75
2023-11-17T09:43:13.234Z,100680.34
2023-11-17T09:45:40.366Z,100677.72
2023-11-17T09:48:08.695Z,100637.91
2023-11-17T09:50:35.797Z,100680.25
2023-11-17T09:53:03.010Z,100679.66
2023-11-17T09:55:31.927Z,100675.94
2023-11-17T09:58:03.875Z,100682.47
2023-11-17T10:00:34.265Z,100691.22
2023-11-17T10:03:05.796Z,100692.41
2023-11-17T10:05:37.924Z,100698.13
2023-11-17T10:08:06.809Z,100690.06
2023-11-17T10:10:38.778Z,100694.00
2023-11-17T10:13:16.597Z,100691.13
2023-11-17T10:15:48.135Z,100703.09
2023-11-17T10:18:25.755Z,100696.91
2023-11-17T10:20:54.409Z,100698.47
2023-11-17T10:23:21.953Z,100708.75
2023-11-17T10:25:55.415Z,100704.09
2023-11-17T10:28:25.556Z,100707.66
2023-11-17T10:30:55.646Z,100699.41
2023-11-17T10:33:30.954Z,100705.50
2023-11-17T10:36:05.378Z,100713.84
2023-11-17T10:38:39.352Z,100705.75
2023-11-17T10:41:22.385Z,100709.94
2023-11-17T10:43:51.409Z,100706.47
2023-11-17T10:46:41.080Z,100706.84
2023-11-17T10:49:16.586Z,100703.06
2023-11-17T10:51:48.088Z,100705.69
2023-11-17T10:54:15.418Z,100707.97
2023-11-17T10:56:43.623Z,100693.09
2023-11-17T10:59:16.728Z,100705.56
2023-11-17T11:01:45.245Z,100702.84
2023-11-17T11:04:26.334Z,100675.78
2023-11-17T11:06:57.568Z,100706.59
2023-11-17T11:09:38.073Z,100717.72
2023-11-17T11:12:09.745Z,100708.72
2023-11-17T11:14:41.424Z,100715.88
2023-11-17T11:17:11.145Z,100709.34
2023-11-17T11:19:48.191Z,100719.47
2023-11-17T11:22:25.004Z,100722.28
2023-11-17T11:24:52.296Z,100704.19
2023-11-17T11:27:18.998Z,100725.59
2023-11-17T11:29:46.865Z,100727.16
2023-11-17T11:32:15.238Z,100719.56
2023-11-17T11:34:42.922Z,100728.56
2023-11-17T11:37:11.425Z,100728.38
2023-11-17T11:39:38.408Z,100732.06
2023-11-17T11:42:08.413Z,100722.28
2023-11-17T11:44:35.919Z,100726.75
2023-11-17T11:47:05.173Z,100730.47
2023-11-17T11:49:34.244Z,100721.72
2023-11-17T11:52:10.817Z,100732.66
2023-11-17T11:54:38.775Z,100735.25
2023-11-17T11:57:28.906Z,100739.22
2023-11-17T12:00:18.503Z,100741.47
2023-11-17T12:02:55.223Z,100745.97
2023-11-17T12:05:31.560Z,100749.97
2023-11-17T12:07:58.478Z,100754.50
2023-11-17T12:10:26.474Z,100749.38
2023-11-17T12:12:56.842Z,100746.50
2023-11-17T12:15:23.843Z,100759.94
2023-11-17T12:17:59.340Z,100750.16
2023-11-17T12:20:30.392Z,100744.00
2023-11-17T12:23:01.776Z,100760.31
2023-11-17T12:25:30.951Z,100765.75
2023-11-17T12:27:59.614Z,100760.97
2023-11-17T12:30:27.560Z,100756.25
2023-11-17T12:32:57.138Z,100764.78
2023-11-17T12:35:28.575Z,100769.69
2023-11-17T12:37:55.877Z,100762.66
2023-11-17T12:40:23.585Z,100764.59
2023-11-17T12:42:51.471Z,100770.97
2023-11-17T12:45:18.904Z,100766.56
2023-11-17T12:47:47.995Z,100767.41
2023-11-17T12:50:15.236Z,100767.84
2023-11-17T12:55:27.489Z,100769.72
2023-11-17T12:57:54.163Z,100768.41
2023-11-17T13:00:29.063Z,100781.59
2023-11-17T13:02:56.319Z,100781.78
2023-11-17T13:05:26.373Z,100782.19
2023-11-17T13:07:54.603Z,100771.41
2023-11-17T13:10:21.989Z,100786.53
2023-11-17T13:12:49.131Z,100790.66
2023-11-17T13:15:17.284Z,100791.72
2023-11-17T13:17:45.331Z,100798.44
2023-11-17T13:20:21.639Z,100797.25
2023-11-17T13:22:50.826Z,100800.56
2023-11-17T13:25:18.265Z,100801.19
2023-11-17T13:27:45.306Z,100802.63
2023-11-17T13:30:15.156Z,100815.47
2023-11-17T13:32:58.408Z,100806.56
2023-11-17T13:35:29.974Z,100809.28
2023-11-17T13:38:01.110Z,100816.78
2023-11-17T13:40:34.010Z,100819.13
2023-11-17T13:43:01.155Z,100824.84
2023-11-17T13:45:28.454Z,100823.06
2023-11-17T13:48:02.048Z,100821.00
2023-11-17T13:50:29.198Z,100815.81
2023-11-17T13:52:56.441Z,100824.66
2023-11-17T13:55:24.849Z,100827.47
2023-11-17T13:57:51.795Z,100826.50
2023-11-17T14:00:20.014Z,100824.44
2023-11-17T14:02:47.549Z,100831.13
2023-11-17T14:05:16.204Z,100847.63
2023-11-17T14:07:52.397Z,100847.63
2023-11-17T14:10:19.475Z,100850.00
2023-11-17T14:12:48.151Z,100855.97
2023-11-17T14:15:16.675Z,100860.78
2023-11-17T14:17:45.271Z,100860.78
2023-11-17T14:20:16.761Z,100872.31
2023-11-17T14:22:43.694Z,100869.22
2023-11-17T14:25:12.272Z,100872.22
2023-11-17T14:27:39.156Z,100863.94
2023-11-17T14:30:09.908Z,100877.38
2023-11-17T14:32:38.752Z,100880.28
2023-11-17T14:35:07.284Z,100883.38
2023-11-17T14:37:35.250Z,100888.19
2023-11-17T14:40:04.449Z,100892.66
2023-11-17T14:42:31.699Z,100890.06
2023-11-17T14:44:59.267Z,100889.09
2023-11-17T14:47:28.233Z,100894.69
2023-11-17T14:49:56.425Z,100894.78
2023-11-17T14:52:23.488Z,100885.44
2023-11-17T14:54:51.032Z,100872.44
2023-11-17T14:57:18.541Z,100897.06
2023-11-17T14:59:46.416Z,100894.72
2023-11-17T15:02:13.847Z,100898.88
2023-11-17T15:04:40.944Z,100909.56
2023-11-17T15:07:09.654Z,100909.56
2023-11-17T15:09:39.140Z,100914.25
2023-11-17T15:12:06.293Z,100909.41
2023-11-17T15:14:33.388Z,100906.22
2023-11-17T15:17:00.395Z,100901.63
2023-11-17T15:19:29.797Z,100916.25
2023-11-17T15:21:58.016Z,100918.72
2023-11-17T15:24:27.875Z,100928.94
2023-11-17T15:26:57.036Z,100939.47
2023-11-17T15:29:30.309Z,100923.22
2023-11-17T15:31:59.356Z,100940.38
2023-11-17T15:34:26.551Z,100941.41
2023-11-17T15:36:54.787Z,100930.03
2023-11-17T15:39:28.177Z,100942.94
2023-11-17T15:41:56.868Z,100954.88
2023-11-17T15:44:24.633Z,100957.97
2023-11-17T15:46:52.448Z,100957.59
2023-11-17T15:49:19.487Z,100966.97
2023-11-17T15:51:46.791Z,100958.16
2023-11-17T15:54:17.578Z,100967.84
2023-11-17T15:56:48.597Z,100977.69
2023-11-17T15:59:16.568Z,100956.25
2023-11-17T16:01:45.098Z,100982.53
2023-11-17T16:04:13.687Z,100985.25
2023-11-17T16:06:41.747Z,100983.09
2023-11-17T16:09:12.307Z,100993.84
2023-11-17T16:11:42.201Z,100996.28
2023-11-17T16:14:14.025Z,100995.88
2023-11-17T16:16:43.331Z,100994.13
2023-11-17T16:19:11.044Z,100994.28
2023-11-17T16:21:38.047Z,101001.22
2023-11-17T16:24:06.312Z,101012.47
2023-11-17T16:26:34.494Z,101016.22
2023-11-17T16:29:02.816Z,101022.22
2023-11-17T16:31:31.419Z,101025.22
2023-11-17T16:33:59.400Z,101027.47
2023-11-17T16:36:26.062Z,101022.78
2023-11-17T16:38:56.532Z,101034.78
2023-11-17T16:41:24.186Z,101032.41
2023-11-17T16:43:51.705Z,101032.59
2023-11-17T16:46:23.203Z,101035.94
2023-11-17T16:48:51.301Z,101042.56
2023-11-17T16:51:18.526Z,101039.66
2023-11-17T16:53:46.989Z,101030.41
2023-11-17T16:56:16.284Z,101052.75
2023-11-17T16:58:45.239Z,101065.03
2023-11-17T17:01:15.128Z,101052.84
2023-11-17T17:03:43.126Z,101067.31
2023-11-17T17:06:14.707Z,101071.78
2023-11-17T17:08:41.838Z,101082.66
2023-11-17T17:11:08.496Z,101081.16
2023-11-17T17:13:36.705Z,101078.91
2023-11-17T17:16:03.567Z,101078.53
2023-11-17T17:18:30.890Z,101087.38
2023-11-17T17:20:58.201Z,101094.69
2023-11-17T17:23:25.283Z,101093.84
2023-11-17T17:25:53.817Z,101098.94
2023-11-17T17:28:22.207Z,101096.22
2023-11-17T17:30:49.191Z,101104.22
2023-11-17T17:33:16.443Z,101110.13
2023-11-17T17:35:44.687Z,101111.84
2023-11-17T17:38:13.313Z,101114.94
2023-11-17T17:40:41.426Z,101114.94
2023-11-17T17:43:10.557Z,101106.28
2023-11-17T17:45:38.020Z,101123.25
2023-11-17T17:48:08.302Z,101107.81
2023-11-17T17:50:35.826Z,101111.16
2023-11-17T17:53:03.033Z,101098.34
2023-11-17T17:55:29.938Z,101113.09
2023-11-17T17:57:57.924Z,101127.81
2023-11-17T18:00:25.846Z,101129.97
2023-11-17T18:02:59.415Z,101128.97
2023-11-17T18:05:28.220Z,101134.41
2023-11-17T18:07:56.100Z,101106.81
2023-11-17T18:10:23.325Z,101140.19
2023-11-17T18:12:52.023Z,101137.28
2023-11-17T18:15:25.385Z,101148.63
2023-11-17T18:17:56.480Z,101139.03
2023-11-17T18:20:25.578Z,101146.00
2023-11-17T18:22:53.722Z,101146.00
2023-11-17T18:25:23.573Z,101156.69
2023-11-17T18:27:53.236Z,101156.22
2023-11-17T18:30:22.176Z,101153.84
2023-11-17T18:32:50.149Z,101158.31
2023-11-17T18:35:18.062Z,101159.75
2023-11-17T18:37:47.024Z,101142.38
2023-11-17T18:40:23.455Z,101167.69
2023-11-17T18:42:52.508Z,101166.00
2023-11-17T18:45:23.013Z,101170.97
2023-11-17T18:47:51.821Z,101184.09
2023-11-17T18:50:19.468Z,101186.59
2023-11-17T18:52:47.767Z,101188.63
2023-11-17T18:55:15.520Z,101194.22
2023-11-17T18:57:43.916Z,101178.16
2023-11-17T19:00:18.608Z,101202.06
2023-11-17T19:02:49.474Z,101194.47
2023-11-17T19:05:16.854Z,101197.88
2023-11-17T19:07:55.574Z,101193.28
2023-11-17T19:10:25.229Z,101195.81
2023-11-17T19:12:52.704Z,101188.19
2023-11-17T19:15:20.913Z,101203.97
2023-11-17T19:17:48.527Z,101207.22
2023-11-17T19:20:16.580Z,101209.59
2023-11-17T19:22:44.924Z,101203.97
2023-11-17T19:25:12.485Z,101212.09
2023-11-17T19:27:43.594Z,101218.22
2023-11-17T19:30:18.028Z,101209.25
2023-11-17T19:32:47.950Z,101225.53
2023-11-17T19:35:16.444Z,101226.59
2023-11-17T19:37:44.091Z,101236.78
2023-11-17T19:40:13.209Z,101243.88
2023-11-17T19:42:40.699Z,101233.91
2023-11-17T19:45:08.654Z,101245.56
2023-11-17T19:47:36.256Z,101251.53
2023-11-17T19:50:05.396Z,101247.81
2023-11-17T19:52:36.768Z,101250.16
2023-11-17T19:55:05.774Z,101248.47
2023-11-17T19:57:33.009Z,101255.44
2023-11-17T20:00:01.051Z,101261.34
2023-11-17T20:02:29.747Z,101259.16
2023-11-17T20:04:56.751Z,101251.56
2023-11-17T20:07:25.581Z,101277.19
2023-11-17T20:09:52.355Z,101284.47
2023-11-17T20:12:19.291Z,101279.03
2023-11-17T20:14:46.040Z,101279.03
2023-11-17T20:17:13.869Z,101272.28
2023-11-17T20:19:41.171Z,101272.59
2023-11-17T20:22:11.818Z,101259.53
2023-11-17T20:24:39.023Z,101290.94
2023-11-17T20:27:07.058Z,101285.34
2023-11-17T20:29:33.798Z,101289.25
2023-11-17T20:32:02.579Z,101291.47
2023-11-17T20:34:29.350Z,101282.50
2023-11-17T20:36:57.116Z,101286.03
2023-11-17T20:39:29.190Z,101289.78
2023-11-17T20:42:00.296Z,101291.66
2023-11-17T20:44:27.668Z,101299.63
2023-11-17T20:46:59.277Z,101307.44
2023-11-17T20:49:26.099Z,101300.66
2023-11-17T20:51:53.170Z,101311.34
2023-11-17T20:54:19.917Z,101322.38
2023-11-17T20:56:49.139Z,101328.97
2023-11-17T20:59:16.453Z,101337.13
2023-11-17T21:01:46.518Z,101335.44
2023-11-17T21:04:16.141Z,101307.06
2023-11-17T21:06:46.490Z,101326.25
2023-11-17T21:09:14.382Z,101324.22
2023-11-17T21:11:47.282Z,101332.88
2023-11-17T21:14:16.261Z,101317.09
2023-11-17T21:16:44.198Z,101322.03
2023-11-17T21:19:11.550Z,101322.72
2023-11-17T21:21:41.047Z,101329.00
2023-11-17T21:24:18.582Z,101322.19
2023-11-17T21:26:52.718Z,101312.22
2023-11-17T21:29:20.860Z,101341.06
2023-11-17T21:31:50.036Z,101345.31
2023-11-17T21:34:17.237Z,101335.78
2023-11-17T21:36:44.222Z,101345.97
2023-11-17T21:39:12.112Z,101344.63
2023-11-17T21:41:39.073Z,101343.94
2023-11-17T21:44:07.890Z,101335.09
2023-11-17T21:46:34.868Z,101329.81
2023-11-17T21:49:01.643Z,101321.88
2023-11-17T21:51:28.765Z,101325.59
2023-11-17T21:53:55.489Z,101352.09
2023-11-17T21:56:22.653Z,101355.16
2023-11-17T21:58:49.876Z,101365.69
2023-11-17T22:01:17.170Z,101362.31
2023-11-17T22:03:44.508Z,101352.25
2023-11-17T22:06:12.722Z,101358.38
2023-11-17T22:08:40.847Z,101370.28
2023-11-17T22:11:08.524Z,101365.69
2023-11-17T22:13:37.222Z,101355.47
2023-11-17T22:16:06.166Z,101358.19
2023-11-17T22:18:33.245Z,101358.53
2023-11-17T22:21:00.298Z,101365.53
2023-11-17T22:23:26.996Z,101335.78
2023-11-17T22:25:54.202Z,101361.91
2023-11-17T22:28:20.949Z,101357.69
2023-11-17T22:30:47.995Z,101355.81
2023-11-17T22:33:14.672Z,101363.66
2023-11-17T22:35:45.204Z,101354.13
2023-11-17T22:38:12.266Z,101361.94
2023-11-17T22:40:39.346Z,101346.81
2023-11-17T22:43:06.422Z,101362.97
2023-11-17T22:45:34.801Z,101357.84
2023-11-17T22:48:01.760Z,101358.53
2023-11-17T22:50:28.892Z,101319.31
2023-11-17T22:52:55.713Z,101368.03
2023-11-17T22:55:23.102Z,101359.19
2023-11-17T22:57:50.640Z,101365.16
2023-11-17T23:00:41.241Z,101374.66
2023-11-17T23:03:11.655Z,101370.75
2023-11-17T23:05:43.002Z,101363.78
2023-11-17T23:08:12.767Z,101375.34
2023-11-17T23:10:39.868Z,101378.91
2023-11-17T23:13:08.139Z,101399.66
2023-11-17T23:15:35.196Z,101405.41
2023-11-17T23:18:02.449Z,101406.44
2023-11-17T23:20:29.979Z,101423.25
2023-11-17T23:22:58.125Z,101422.56
2023-11-17T23:25:26.374Z,101424.13
2023-11-17T23:27:53.413Z,101428.69
2023-11-17T23:30:20.638Z,101433.28
2023-11-17T23:32:47.632Z,101428.34
2023-11-17T23:35:14.702Z,101429.19
2023-11-17T23:37:41.439Z,101435.47
2023-11-17T23:40:10.245Z,101441.94
2023-11-17T23:42:36.894Z,101439.56
2023-11-17T23:45:06.658Z,101443.31
2023-11-17T23:47:33.417Z,101445.34
2023-11-17T23:50:00.457Z,101445.34
2023-11-17T23:52:27.930Z,101444.00
2023-11-17T23:54:55.621Z,101459.78
2023-11-17T23:57:22.363Z,101453.50
2023-11-17T23:59:49.305Z,101447.03
